Time;durP1;ratioP1;P1;durP2;ratioP2;P2;SDS_P1;SDS_P2;PMS_P1;PMS_P2;Temp;Humidity;BMP_temperature;BMP_pressure;BME280_temperature;BME280_humidity;BME280_pressure;Samples;Min_cycle;Max_cycle;Signal;HPM_P1;HPM_P2
2022/11/16 00:01:15;;;;;;;22.37;9.53;;;12.90;99.90;;;;;;5076544;28;20579;-62
2022/11/16 00:03:43;;;;;;;38.53;10.70;;;12.90;99.90;;;;;;5068036;28;20489;-62
2022/11/16 00:06:11;;;;;;;19.47;8.70;;;12.90;99.90;;;;;;5068693;28;20482;-62
2022/11/16 00:08:40;;;;;;;30.90;12.73;;;13.00;99.90;;;;;;5067393;28;20720;-62
2022/11/16 00:11:09;;;;;;;31.43;11.40;;;12.70;99.90;;;;;;5071886;28;20562;-63
2022/11/16 00:13:37;;;;;;;32.87;10.60;;;12.70;99.90;;;;;;5070579;28;21218;-62
2022/11/16 00:16:05;;;;;;;18.60;8.70;;;12.60;99.90;;;;;;5076104;28;20466;-62
2022/11/16 00:18:33;;;;;;;24.27;9.63;;;12.70;99.90;;;;;;5073397;28;20654;-62
2022/11/16 00:21:02;;;;;;;22.37;9.03;;;12.70;99.90;;;;;;5080664;28;20474;-62
2022/11/16 00:23:29;;;;;;;23.07;9.60;;;12.80;99.90;;;;;;5066157;28;20512;-62
2022/11/16 00:25:56;;;;;;;26.50;9.00;;;12.80;99.90;;;;;;5089437;28;20482;-62
2022/11/16 00:28:22;;;;;;;27.63;10.60;;;12.80;99.90;;;;;;5076177;28;20484;-63
2022/11/16 00:30:58;;;;;;;14.90;8.10;;;12.80;99.90;;;;;;5075401;28;20497;-62
2022/11/16 00:33:24;;;;;;;25.63;11.73;;;12.90;99.90;;;;;;5058116;28;20826;-62
2022/11/16 00:35:53;;;;;;;25.07;11.10;;;12.80;99.90;;;;;;5083048;28;20563;-62
2022/11/16 00:38:20;;;;;;;24.60;8.33;;;12.70;99.90;;;;;;5076667;28;20509;-63
2022/11/16 00:40:47;;;;;;;27.37;10.77;;;12.60;99.90;;;;;;5072080;28;20790;-62
2022/11/16 00:43:13;;;;;;;30.70;13.30;;;12.50;99.90;;;;;;5070605;28;20478;-62
2022/11/16 00:45:40;;;;;;;30.17;12.27;;;12.60;99.90;;;;;;5071240;28;20478;-61
2022/11/16 00:48:07;;;;;;;19.43;8.20;;;12.70;99.90;;;;;;5070565;28;20490;-62
2022/11/16 00:50:34;;;;;;;31.60;11.60;;;12.70;99.90;;;;;;5068125;28;20505;-62
2022/11/16 00:53:02;;;;;;;24.63;9.30;;;12.80;99.90;;;;;;5079280;28;21676;-62
2022/11/16 00:55:28;;;;;;;21.60;9.63;;;12.80;99.90;;;;;;5072565;28;20482;-62
2022/11/16 00:57:55;;;;;;;21.60;9.40;;;12.60;99.90;;;;;;5076956;28;21027;-62
2022/11/16 01:00:22;;;;;;;19.60;7.97;;;;;;;;;;5080766;28;20470;-61
2022/11/16 01:02:51;;;;;;;23.40;10.00;;;12.50;99.90;;;;;;5072869;28;20520;-61
2022/11/16 01:05:18;;;;;;;15.20;7.30;;;;;;;;;;5075844;28;20971;-62
2022/11/16 01:07:45;;;;;;;17.53;9.27;;;12.80;99.90;;;;;;5078114;28;20482;-61
2022/11/16 01:10:16;;;;;;;19.97;6.33;;;12.80;99.90;;;;;;5074951;28;20478;-61
2022/11/16 01:12:43;;;;;;;35.10;13.40;;;12.90;99.90;;;;;;5074151;28;20474;-61
2022/11/16 01:15:10;;;;;;;33.57;7.07;;;12.80;99.90;;;;;;5073134;28;20485;-61
2022/11/16 01:17:38;;;;;;;34.67;11.00;;;11.10;99.90;;;;;;5084591;28;20551;-61
2022/11/16 01:20:06;;;;;;;15.20;6.23;;;;;;;;;;5077595;28;20967;-61
2022/11/16 01:22:35;;;;;;;20.63;8.33;;;12.80;99.90;;;;;;5077176;28;21141;-61
2022/11/16 01:25:02;;;;;;;13.67;6.60;;;12.80;99.90;;;;;;5077622;28;20479;-61
2022/11/16 01:27:30;;;;;;;23.23;5.53;;;12.80;99.90;;;;;;5076365;28;20521;-61
2022/11/16 01:29:57;;;;;;;25.43;7.53;;;12.80;99.90;;;;;;5075863;28;20498;-61
2022/11/16 01:32:24;;;;;;;19.77;5.50;;;13.60;99.90;;;;;;5076705;28;20483;-61
2022/11/16 01:34:50;;;;;;;11.07;4.00;;;12.90;99.90;;;;;;5074699;28;21026;-61
2022/11/16 01:37:18;;;;;;;15.13;4.60;;;12.80;99.90;;;;;;5075900;28;20485;-61
2022/11/16 01:39:45;;;;;;;21.73;7.60;;;;;;;;;;5074746;28;20462;-61
2022/11/16 01:42:18;;;;;;;25.73;6.40;;;12.80;99.90;;;;;;5076004;28;20482;-61
2022/11/16 01:44:59;;;;;;;16.03;6.40;;;12.80;99.90;;;;;;5064307;28;21272;-61
2022/11/16 01:47:26;;;;;;;22.73;5.10;;;12.80;99.90;;;;;;5067496;28;20471;-61
2022/11/16 01:49:56;;;;;;;14.13;4.87;;;12.80;99.90;;;;;;5078533;28;20474;-62
2022/11/16 01:52:26;;;;;;;16.47;5.30;;;12.80;99.90;;;;;;5078776;28;20489;-62
2022/11/16 01:54:54;;;;;;;15.40;5.73;;;;;;;;;;5073538;28;20489;-63
2022/11/16 01:57:23;;;;;;;18.13;5.37;;;;;;;;;;5075208;28;20490;-62
2022/11/16 01:59:55;;;;;;;21.53;6.37;;;12.80;99.90;;;;;;5071720;28;20474;-62
2022/11/16 02:02:23;;;;;;;22.50;5.27;;;12.80;99.90;;;;;;5073870;28;20668;-62
2022/11/16 02:04:52;;;;;;;9.77;5.17;;;12.70;99.90;;;;;;5074694;28;20482;-62
2022/11/16 02:07:30;;;;;;;15.13;5.60;;;12.70;99.90;;;;;;5077732;28;20481;-62
2022/11/16 02:10:09;;;;;;;32.23;6.77;;;12.70;99.90;;;;;;5073428;28;20474;-61
2022/11/16 02:12:46;;;;;;;36.47;9.87;;;;;;;;;;5069533;28;20475;-61
2022/11/16 02:15:20;;;;;;;10.37;4.33;;;12.60;99.90;;;;;;5075565;28;20481;-61
2022/11/16 02:17:52;;;;;;;19.53;6.27;;;;;;;;;;5073030;28;20474;-61
2022/11/16 02:20:48;;;;;;;29.70;4.50;;;12.60;99.90;;;;;;5077754;28;20493;-61
2022/11/16 02:24:09;;;;;;;35.87;6.23;;;12.50;99.90;;;;;;5068383;28;20474;-61
2022/11/16 02:26:59;;;;;;;18.33;4.93;;;12.50;99.90;;;;;;5061912;28;20485;-61
2022/11/16 02:29:32;;;;;;;28.80;5.30;;;12.60;99.90;;;;;;5077278;28;20497;-61
2022/11/16 02:32:02;;;;;;;23.80;5.90;;;;;;;;;;5073816;28;20818;-61
2022/11/16 02:34:33;;;;;;;30.93;7.30;;;12.80;99.90;;;;;;5070299;28;20824;-61
2022/11/16 02:37:02;;;;;;;17.13;4.70;;;12.70;99.90;;;;;;5076501;28;20490;-61
2022/11/16 02:39:31;;;;;;;14.13;5.57;;;12.70;99.90;;;;;;5074881;28;20482;-61
2022/11/16 02:41:59;;;;;;;14.43;4.67;;;12.60;99.90;;;;;;5077248;28;20955;-61
2022/11/16 02:44:32;;;;;;;31.17;4.77;;;12.60;99.90;;;;;;5075486;28;20489;-61
2022/11/16 02:47:03;;;;;;;15.43;4.33;;;12.50;99.90;;;;;;5073631;28;20485;-61
2022/11/16 02:49:33;;;;;;;25.27;7.70;;;12.50;99.90;;;;;;5072217;28;20493;-61
2022/11/16 02:52:01;;;;;;;20.37;5.63;;;12.40;99.90;;;;;;5080382;28;20996;-61
2022/11/16 02:54:28;;;;;;;25.17;5.50;;;12.40;99.90;;;;;;5074637;28;20745;-61
2022/11/16 02:57:11;;;;;;;31.30;6.40;;;12.60;99.90;;;;;;5074743;28;21051;-61
2022/11/16 02:59:42;;;;;;;36.57;10.03;;;;;;;;;;5062138;28;20474;-61
2022/11/16 03:02:17;;;;;;;18.87;6.20;;;;;;;;;;5064817;28;20485;-61
2022/11/16 03:04:46;;;;;;;25.57;7.70;;;;;;;;;;5063714;28;20474;-62
2022/11/16 03:07:17;;;;;;;22.00;6.37;;;12.80;99.90;;;;;;5073552;28;20477;-61
2022/11/16 03:09:46;;;;;;;23.63;6.30;;;12.80;99.90;;;;;;5073432;28;21226;-61
2022/11/16 03:12:15;;;;;;;17.87;6.20;;;12.80;99.90;;;;;;5078783;28;20490;-61
2022/11/16 03:14:48;;;;;;;36.70;7.90;;;12.80;99.90;;;;;;5075045;28;20870;-61
2022/11/16 03:17:21;;;;;;;13.13;4.60;;;12.90;99.90;;;;;;5063375;28;20823;-61
2022/11/16 03:19:54;;;;;;;21.00;6.00;;;12.80;99.90;;;;;;5067514;28;21213;-61
2022/11/16 03:22:24;;;;;;;20.63;4.90;;;;;;;;;;5071208;28;20485;-61
2022/11/16 03:24:51;;;;;;;15.90;4.63;;;12.80;99.90;;;;;;5072470;28;20486;-61
2022/11/16 03:27:26;;;;;;;15.40;4.47;;;12.60;99.90;;;;;;5074324;28;20678;-61
2022/11/16 03:30:02;;;;;;;18.57;5.33;;;12.50;99.90;;;;;;5076591;28;20470;-61
2022/11/16 03:32:33;;;;;;;19.20;5.37;;;12.40;99.90;;;;;;5075357;28;20486;-61
2022/11/16 03:35:02;;;;;;;18.97;6.40;;;;;;;;;;5076086;28;20505;-61
2022/11/16 03:37:30;;;;;;;20.23;5.87;;;;;;;;;;5074418;28;20563;-61
2022/11/16 03:39:59;;;;;;;21.33;6.60;;;12.20;99.90;;;;;;5074060;28;20696;-61
2022/11/16 03:42:27;;;;;;;20.93;5.60;;;12.10;99.90;;;;;;5074286;28;20779;-61
2022/11/16 03:44:55;;;;;;;15.63;5.23;;;;;;;;;;5072235;28;21120;-61
2022/11/16 03:47:23;;;;;;;33.13;4.83;;;;;;;;;;5077406;28;20482;-61
2022/11/16 03:49:50;;;;;;;24.30;7.73;;;12.30;99.90;;;;;;5071397;28;20951;-61
2022/11/16 03:52:18;;;;;;;28.90;7.67;;;12.30;99.90;;;;;;5080912;28;20701;-60
2022/11/16 03:54:45;;;;;;;25.00;7.17;;;12.30;99.90;;;;;;5077739;28;20481;-61
2022/11/16 03:57:16;;;;;;;21.03;5.37;;;12.30;99.90;;;;;;5078158;28;20486;-61
2022/11/16 03:59:42;;;;;;;28.00;8.30;;;12.50;99.90;;;;;;5078612;28;20489;-61
2022/11/16 04:02:10;;;;;;;15.50;5.17;;;12.40;99.90;;;;;;5079649;28;20482;-61
2022/11/16 04:24:13;;;;;;;15.47;6.50;;;12.60;99.90;;;;;;5065032;28;21029;-61
2022/11/16 04:29:26;;;;;;;21.93;5.90;;;12.50;99.90;;;;;;5079693;28;20993;-61
2022/11/16 04:40:11;;;;;;;14.83;6.10;;;12.50;99.90;;;;;;5074160;28;20790;-61
2022/11/16 04:42:38;;;;;;;25.40;9.40;;;12.50;99.90;;;;;;5077895;28;20475;-62
2022/11/16 04:47:50;;;;;;;10.67;4.07;;;12.50;99.90;;;;;;5078531;28;20486;-63
2022/11/16 04:50:17;;;;;;;19.83;6.87;;;12.50;99.90;;;;;;5082220;28;20473;-62
2022/11/16 04:52:45;;;;;;;33.13;11.30;;;12.50;99.90;;;;;;5077051;28;20478;-61
2022/11/16 04:55:13;;;;;;;13.60;5.33;;;12.50;99.90;;;;;;5078045;28;20489;-62
2022/11/16 04:57:40;;;;;;;29.17;8.40;;;12.40;99.90;;;;;;5076912;28;20847;-63
2022/11/16 05:00:07;;;;;;;21.33;7.30;;;12.40;99.90;;;;;;5078331;28;20945;-62
2022/11/16 05:02:34;;;;;;;44.93;11.60;;;12.40;99.90;;;;;;5076396;28;20849;-62
2022/11/16 05:05:01;;;;;;;24.20;5.87;;;12.30;99.90;;;;;;5077025;28;20505;-63
2022/11/16 05:07:28;;;;;;;18.70;5.97;;;12.30;99.90;;;;;;5077179;28;20482;-62
2022/11/16 05:09:56;;;;;;;21.73;7.83;;;12.20;99.90;;;;;;5072110;28;20754;-62
2022/11/16 05:12:24;;;;;;;29.57;6.10;;;12.20;99.90;;;;;;5078041;28;20688;-62
2022/11/16 05:14:51;;;;;;;20.07;5.50;;;12.20;99.90;;;;;;5075461;28;20580;-62
2022/11/16 05:17:18;;;;;;;17.90;5.20;;;12.20;99.90;;;;;;5077901;28;20873;-62
2022/11/16 05:22:30;;;;;;;31.70;9.00;;;;;;;;;;5076076;28;20478;-62
2022/11/16 05:24:59;;;;;;;26.83;7.10;;;;;;;;;;5075092;28;21049;-62
2022/11/16 05:27:28;;;;;;;18.40;5.53;;;12.10;99.90;;;;;;5078708;28;20845;-62
2022/11/16 05:29:55;;;;;;;28.83;6.33;;;12.00;99.90;;;;;;5077965;28;20482;-62
2022/11/16 05:32:23;;;;;;;28.47;7.50;;;12.00;99.90;;;;;;5079120;28;20994;-62
2022/11/16 05:34:50;;;;;;;14.93;5.17;;;11.90;99.90;;;;;;5070352;28;20532;-62
2022/11/16 05:37:19;;;;;;;25.90;6.30;;;11.90;99.90;;;;;;5086773;28;20833;-62
2022/11/16 05:39:46;;;;;;;23.67;6.63;;;;;;;;;;5075829;28;21100;-62
2022/11/16 05:42:15;;;;;;;20.40;6.50;;;11.90;99.90;;;;;;5078314;28;21024;-62
2022/11/16 05:44:42;;;;;;;21.07;8.10;;;11.80;99.90;;;;;;5075219;28;20482;-62
2022/11/16 05:47:09;;;;;;;18.10;5.20;;;11.80;99.90;;;;;;5083434;28;20489;-62
2022/11/16 05:49:35;;;;;;;36.93;10.73;;;11.90;99.90;;;;;;5070494;28;20470;-62
2022/11/16 05:52:02;;;;;;;17.67;6.13;;;11.90;99.90;;;;;;5075114;28;20485;-62
2022/11/16 05:54:30;;;;;;;21.73;4.73;;;;;;;;;;5074941;28;20475;-62
2022/11/16 05:56:57;;;;;;;29.93;6.27;;;11.90;99.90;;;;;;5078063;28;20482;-62
2022/11/16 05:59:26;;;;;;;25.57;6.30;;;11.70;99.90;;;;;;5078709;28;21149;-62
2022/11/16 06:01:53;;;;;;;14.33;3.80;;;11.70;99.90;;;;;;5077120;28;20475;-62
2022/11/16 06:04:20;;;;;;;14.77;4.93;;;;;;;;;;5072696;28;20469;-62
2022/11/16 06:06:47;;;;;;;27.33;6.67;;;11.60;99.90;;;;;;5076382;28;20474;-62
2022/11/16 06:09:14;;;;;;;19.73;4.97;;;11.60;99.90;;;;;;5093338;28;20966;-61
2022/11/16 06:11:41;;;;;;;30.03;8.77;;;11.60;99.90;;;;;;5072122;28;20531;-61
2022/11/16 06:14:07;;;;;;;30.60;6.63;;;11.50;99.90;;;;;;5082306;28;20481;-61
2022/11/16 06:16:36;;;;;;;31.67;9.70;;;11.50;99.90;;;;;;5079152;28;20997;-62
2022/11/16 06:19:03;;;;;;;33.03;9.17;;;11.50;99.90;;;;;;5077826;28;20779;-62
2022/11/16 06:21:30;;;;;;;27.87;7.13;;;11.40;99.90;;;;;;5077160;28;20987;-62
2022/11/16 06:23:56;;;;;;;38.03;6.07;;;11.30;99.90;;;;;;5074339;28;20478;-62
2022/11/16 06:26:23;;;;;;;30.60;6.07;;;11.30;99.90;;;;;;5077482;28;20475;-62
2022/11/16 06:28:50;;;;;;;13.30;5.27;;;11.20;99.90;;;;;;5077027;28;20832;-62
2022/11/16 06:31:16;;;;;;;39.20;7.70;;;11.20;99.90;;;;;;5073145;28;20478;-62
2022/11/16 06:33:44;;;;;;;49.57;10.83;;;11.10;99.90;;;;;;5079846;28;20936;-61
2022/11/16 06:36:11;;;;;;;34.37;8.07;;;11.10;99.90;;;;;;5070694;28;20489;-62
2022/11/16 06:38:38;;;;;;;36.70;9.40;;;11.10;99.90;;;;;;5085631;28;20482;-62
2022/11/16 06:41:05;;;;;;;49.13;6.70;;;;;;;;;;5075222;28;20493;-62
2022/11/16 06:43:32;;;;;;;39.47;8.90;;;11.00;99.90;;;;;;5065579;28;20883;-61
2022/11/16 06:45:58;;;;;;;28.10;5.27;;;11.10;99.90;;;;;;5074806;28;20483;-61
2022/11/16 06:48:26;;;;;;;48.07;6.47;;;11.10;99.90;;;;;;5074897;28;20834;-61
2022/11/16 06:50:54;;;;;;;32.23;5.47;;;;;;;;;;5073627;28;20483;-62
2022/11/16 06:53:22;;;;;;;36.13;5.60;;;10.90;99.90;;;;;;5075182;28;21002;-62
2022/11/16 06:55:49;;;;;;;35.83;6.27;;;10.90;99.90;;;;;;5071797;28;20870;-62
2022/11/16 06:58:15;;;;;;;35.77;6.60;;;10.90;99.90;;;;;;5076674;28;20478;-62
2022/11/16 07:00:42;;;;;;;35.10;6.33;;;;;;;;;;5063347;28;20478;-61
2022/11/16 07:03:09;;;;;;;31.67;6.43;;;;;;;;;;5074460;28;20474;-61
2022/11/16 07:05:40;;;;;;;44.43;9.20;;;10.90;99.90;;;;;;5076067;28;20481;-62
2022/11/16 07:08:08;;;;;;;47.10;6.57;;;10.90;99.90;;;;;;5077237;28;20562;-61
2022/11/16 07:10:36;;;;;;;52.43;10.80;;;10.90;99.90;;;;;;5074690;28;20892;-61
2022/11/16 07:13:03;;;;;;;45.20;7.27;;;;;;;;;;5070923;28;20470;-62
2022/11/16 07:15:30;;;;;;;34.07;8.10;;;10.90;99.90;;;;;;5061607;28;20489;-61
2022/11/16 07:17:57;;;;;;;41.40;7.30;;;10.90;99.90;;;;;;5083735;28;20930;-61
2022/11/16 07:20:24;;;;;;;24.13;6.37;;;;;;;;;;5076911;28;20985;-61
2022/11/16 07:22:51;;;;;;;43.67;9.10;;;;;;;;;;5070610;28;20501;-61
2022/11/16 07:25:19;;;;;;;35.60;7.07;;;10.80;99.90;;;;;;5067397;28;20483;-61
2022/11/16 07:27:46;;;;;;;32.77;7.17;;;;;;;;;;5079840;28;20494;-61
2022/11/16 07:30:13;;;;;;;42.87;7.33;;;11.00;99.90;;;;;;5080410;28;20696;-61
2022/11/16 07:32:41;;;;;;;40.67;10.43;;;11.10;99.90;;;;;;5079303;28;20908;-61
2022/11/16 07:35:09;;;;;;;41.10;7.07;;;;;;;;;;5075972;28;20492;-62
2022/11/16 07:37:35;;;;;;;31.50;9.33;;;11.10;99.90;;;;;;5080213;28;20483;-62
2022/11/16 07:40:02;;;;;;;37.83;6.90;;;11.20;99.90;;;;;;5075890;28;20484;-61
2022/11/16 07:42:30;;;;;;;23.00;5.67;;;11.10;99.90;;;;;;5075097;28;21117;-61
2022/11/16 07:44:57;;;;;;;41.80;7.17;;;11.40;99.90;;;;;;5076274;28;20732;-62
2022/11/16 07:47:24;;;;;;;30.23;6.53;;;;;;;;;;5076736;28;20966;-62
2022/11/16 07:49:51;;;;;;;22.67;5.10;;;11.90;99.90;;;;;;5080101;28;21033;-62
2022/11/16 07:52:18;;;;;;;36.23;8.40;;;12.10;99.90;;;;;;5080373;28;20478;-62
2022/11/16 07:54:45;;;;;;;33.33;7.33;;;;;;;;;;5076899;28;20497;-61
2022/11/16 07:57:11;;;;;;;39.37;7.00;;;11.90;99.90;;;;;;5079847;28;20474;-62
2022/11/16 07:59:40;;;;;;;23.53;8.00;;;;;;;;;;5078534;28;20490;-62
2022/11/16 08:02:06;;;;;;;31.33;7.07;;;13.10;99.90;;;;;;5077856;28;20485;-62
2022/11/16 08:04:33;;;;;;;60.17;9.33;;;;;;;;;;5076940;28;20482;-62
2022/11/16 08:07:00;;;;;;;32.60;6.13;;;14.10;99.90;;;;;;5079525;28;20485;-62
2022/11/16 08:09:27;;;;;;;47.37;8.47;;;14.10;99.90;;;;;;5072966;28;20501;-62
2022/11/16 08:11:54;;;;;;;41.73;7.53;;;13.90;99.90;;;;;;5079181;28;20467;-62
2022/11/16 08:14:21;;;;;;;37.43;5.43;;;;;;;;;;5077690;28;20489;-62
2022/11/16 08:16:49;;;;;;;20.23;4.87;;;14.10;99.90;;;;;;5080675;28;20486;-63
2022/11/16 08:19:16;;;;;;;27.87;5.90;;;;;;;;;;5071971;28;20813;-62
2022/11/16 08:21:44;;;;;;;35.13;8.23;;;14.40;99.90;;;;;;5076894;28;21006;-61
2022/11/16 08:24:11;;;;;;;37.17;6.20;;;14.60;99.90;;;;;;5077602;28;20900;-62
2022/11/16 08:26:38;;;;;;;28.23;8.47;;;;;;;;;;5075267;28;20497;-63
2022/11/16 08:29:05;;;;;;;29.40;10.20;;;14.70;99.90;;;;;;5053146;28;20617;-62
2022/11/16 08:31:32;;;;;;;47.67;12.80;;;14.40;99.90;;;;;;5079570;27;20474;-62
2022/11/16 08:34:00;;;;;;;31.70;7.70;;;14.20;99.90;;;;;;5065966;27;20640;-62
2022/11/16 08:36:27;;;;;;;66.10;22.93;;;14.10;99.90;;;;;;5077426;28;20466;-63
2022/11/16 08:38:54;;;;;;;30.87;7.73;;;13.90;99.90;;;;;;5076289;28;20470;-63
2022/11/16 08:41:21;;;;;;;30.47;7.13;;;13.80;99.90;;;;;;5074856;28;20846;-61
2022/11/16 08:43:52;;;;;;;29.07;5.63;;;;;;;;;;5071578;28;20521;-61
2022/11/16 08:46:18;;;;;;;32.83;6.83;;;14.30;99.90;;;;;;5073483;28;21117;-61
2022/11/16 08:48:45;;;;;;;32.57;7.50;;;14.50;99.90;;;;;;5074390;28;20970;-62
2022/11/16 08:51:17;;;;;;;38.80;7.30;;;14.70;99.90;;;;;;5075746;28;20943;-62
2022/11/16 08:53:43;;;;;;;42.50;8.30;;;14.90;99.90;;;;;;5072811;28;20478;-62
2022/11/16 08:56:12;;;;;;;29.93;6.53;;;14.90;99.90;;;;;;5076287;28;20695;-62
2022/11/16 08:58:41;;;;;;;28.90;7.67;;;;;;;;;;5074304;28;20828;-62
2022/11/16 09:01:09;;;;;;;27.60;7.10;;;14.60;99.90;;;;;;5073423;28;20884;-61
2022/11/16 09:03:37;;;;;;;40.40;8.80;;;14.50;99.90;;;;;;5072516;28;20558;-62
2022/11/16 09:06:05;;;;;;;36.67;7.77;;;14.30;99.90;;;;;;5074451;28;20529;-62
2022/11/16 09:08:34;;;;;;;41.73;9.90;;;14.00;99.90;;;;;;5071077;28;20483;-61
2022/11/16 09:11:03;;;;;;;19.70;6.40;;;13.90;99.90;;;;;;5065407;28;20466;-62
2022/11/16 09:13:30;;;;;;;32.57;8.93;;;14.00;99.90;;;;;;5088003;28;20474;-61
2022/11/16 09:15:58;;;;;;;44.10;6.77;;;;;;;;;;5072860;28;20486;-62
2022/11/16 09:18:24;;;;;;;26.87;6.10;;;13.80;99.90;;;;;;5072253;28;20858;-62
2022/11/16 09:20:52;;;;;;;32.27;6.47;;;13.70;99.90;;;;;;5071967;28;20474;-62
2022/11/16 09:23:19;;;;;;;31.73;6.60;;;;;;;;;;5071743;28;20453;-63
2022/11/16 09:25:47;;;;;;;22.00;6.10;;;13.40;99.90;;;;;;5073740;28;20919;-61
2022/11/16 09:28:15;;;;;;;38.13;6.77;;;13.40;99.90;;;;;;5074774;28;20489;-62
2022/11/16 09:30:42;;;;;;;33.63;7.27;;;;;;;;;;5073856;28;20505;-61
2022/11/16 09:33:09;;;;;;;39.93;8.27;;;;;;;;;;5072991;28;20903;-62
2022/11/16 09:35:36;;;;;;;41.33;9.10;;;;;;;;;;5074980;28;20482;-62
2022/11/16 09:38:04;;;;;;;29.87;7.40;;;;;;;;;;5072247;28;21472;-63
2022/11/16 09:40:34;;;;;;;38.87;9.20;;;13.60;99.90;;;;;;5075332;28;20962;-62
2022/11/16 09:43:12;;;;;;;38.27;8.37;;;13.60;99.90;;;;;;5073837;28;20489;-61
2022/11/16 09:45:44;;;;;;;38.20;8.63;;;13.60;99.90;;;;;;5063908;28;21853;-62
2022/11/16 09:48:13;;;;;;;36.73;6.70;;;13.80;99.90;;;;;;5072961;28;20470;-61
2022/11/16 09:50:43;;;;;;;60.17;10.50;;;;;;;;;;5068516;28;20468;-62
2022/11/16 09:53:21;;;;;;;43.17;9.20;;;13.70;99.90;;;;;;5071587;28;20478;-62
2022/11/16 09:55:49;;;;;;;42.90;7.00;;;;;;;;;;5071333;28;20517;-62
2022/11/16 09:58:22;;;;;;;34.87;6.63;;;13.30;99.90;;;;;;5067961;28;20478;-62
2022/11/16 10:00:56;;;;;;;24.70;6.20;;;13.20;99.90;;;;;;5066002;28;20883;-62
2022/11/16 10:03:25;;;;;;;35.93;6.60;;;;;;;;;;5069712;28;20478;-61
2022/11/16 10:05:59;;;;;;;40.53;8.43;;;13.30;99.90;;;;;;5075156;28;20482;-61
2022/11/16 10:08:35;;;;;;;26.80;6.37;;;13.20;99.90;;;;;;5076062;28;21051;-62
2022/11/16 10:11:22;;;;;;;48.80;8.73;;;13.20;99.90;;;;;;5075447;28;20810;-62
2022/11/16 10:13:59;;;;;;;46.53;6.87;;;13.10;99.90;;;;;;5068197;28;20573;-62
2022/11/16 10:16:33;;;;;;;37.67;6.40;;;13.00;99.90;;;;;;5081862;28;20485;-61
2022/11/16 10:19:07;;;;;;;40.93;6.97;;;13.00;99.90;;;;;;5072465;28;20481;-61
2022/11/16 10:21:41;;;;;;;46.90;10.30;;;;;;;;;;5068469;28;20947;-61
2022/11/16 10:24:32;;;;;;;41.63;7.90;;;13.20;99.90;;;;;;5070304;28;20825;-61
2022/11/16 10:27:14;;;;;;;36.17;6.40;;;;;;;;;;5069381;28;20747;-62
2022/11/16 10:29:53;;;;;;;34.00;7.80;;;13.30;99.90;;;;;;5054313;28;20891;-61
2022/11/16 10:32:26;;;;;;;32.47;6.77;;;13.40;99.90;;;;;;5063830;28;20466;-62
2022/11/16 10:34:55;;;;;;;50.27;7.10;;;13.60;99.90;;;;;;5086323;28;20467;-61
2022/11/16 10:37:28;;;;;;;25.67;5.40;;;13.60;99.90;;;;;;5073980;28;20561;-62
2022/11/16 10:39:55;;;;;;;47.57;8.40;;;;;;;;;;5065606;28;20478;-62
2022/11/16 10:42:31;;;;;;;34.27;6.73;;;13.70;99.90;;;;;;5071590;28;20482;-62
2022/11/16 10:45:08;;;;;;;33.20;6.90;;;13.70;99.90;;;;;;5069939;28;20478;-62
2022/11/16 10:47:41;;;;;;;51.87;9.33;;;13.70;99.90;;;;;;5069473;28;20481;-62
2022/11/16 10:50:31;;;;;;;38.63;7.53;;;13.70;99.90;;;;;;5068442;28;20466;-61
2022/11/16 10:52:58;;;;;;;38.93;7.93;;;13.90;99.90;;;;;;5069715;28;20475;-61
2022/11/16 10:55:27;;;;;;;29.13;7.17;;;;;;;;;;5073480;28;20470;-61
2022/11/16 10:57:55;;;;;;;21.60;6.80;;;;;;;;;;5070922;28;21067;-62
2022/11/16 11:00:36;;;;;;;31.60;6.33;;;14.00;99.90;;;;;;5072044;28;20541;-61
2022/11/16 11:03:03;;;;;;;27.90;6.23;;;13.90;99.90;;;;;;5068677;28;20779;-63
2022/11/16 11:05:30;;;;;;;34.73;7.30;;;14.10;99.90;;;;;;5070507;28;20482;-61
2022/11/16 11:08:01;;;;;;;42.27;9.87;;;14.20;99.90;;;;;;5070273;28;20485;-63
2022/11/16 11:10:29;;;;;;;38.73;5.80;;;;;;;;;;5077018;28;20483;-61
2022/11/16 11:13:19;;;;;;;36.57;8.23;;;14.10;99.90;;;;;;5071282;28;20474;-61
2022/11/16 11:15:50;;;;;;;49.23;7.13;;;14.10;99.90;;;;;;5071822;28;20486;-62
2022/11/16 11:18:24;;;;;;;35.17;7.90;;;14.30;99.90;;;;;;5060028;28;20846;-61
2022/11/16 11:20:53;;;;;;;28.77;5.40;;;;;;;;;;5068801;28;20481;-62
2022/11/16 11:23:21;;;;;;;46.63;7.50;;;;;;;;;;5068889;28;20481;-62
2022/11/16 11:25:52;;;;;;;31.13;5.20;;;14.50;99.90;;;;;;5048853;28;20737;-62
2022/11/16 11:28:24;;;;;;;45.33;7.60;;;14.30;99.90;;;;;;5071203;28;20547;-62
2022/11/16 11:30:56;;;;;;;31.27;7.10;;;14.10;99.90;;;;;;5059319;28;20467;-61
2022/11/16 11:33:24;;;;;;;39.17;7.73;;;14.10;99.90;;;;;;5058628;28;20474;-62
2022/11/16 11:35:57;;;;;;;39.33;6.27;;;;;;;;;;5060955;28;20478;-61
2022/11/16 11:38:25;;;;;;;40.30;7.03;;;14.50;99.90;;;;;;5061913;28;21255;-61
2022/11/16 11:40:57;;;;;;;21.87;5.83;;;14.60;99.90;;;;;;5056856;28;20470;-61
2022/11/16 11:43:25;;;;;;;26.30;6.90;;;;;;;;;;5070938;28;21161;-62
2022/11/16 11:45:58;;;;;;;44.87;6.80;;;14.80;99.90;;;;;;5069573;28;20481;-62
2022/11/16 11:48:30;;;;;;;46.20;6.10;;;;;;;;;;5067032;28;20679;-61
2022/11/16 11:51:01;;;;;;;28.60;5.37;;;14.60;99.90;;;;;;5058116;28;21565;-61
2022/11/16 11:53:40;;;;;;;41.63;7.53;;;14.50;99.90;;;;;;5073034;28;20842;-63
2022/11/16 11:56:10;;;;;;;31.27;6.30;;;;;;;;;;5062829;28;20478;-63
2022/11/16 11:58:39;;;;;;;51.93;10.00;;;14.30;99.90;;;;;;5068454;28;20482;-63
2022/11/16 12:01:33;;;;;;;42.47;7.73;;;14.10;99.90;;;;;;5066302;28;20497;-63
2022/11/16 12:04:35;;;;;;;31.20;5.80;;;14.00;99.90;;;;;;5060005;28;20478;-63
2022/11/16 12:07:07;;;;;;;56.53;7.53;;;;;;;;;;5068564;28;20577;-62
2022/11/16 12:09:43;;;;;;;40.30;10.80;;;14.10;99.90;;;;;;5065274;28;21005;-62
2022/11/16 12:12:22;;;;;;;33.97;6.03;;;14.40;99.90;;;;;;5058946;28;20482;-63
2022/11/16 12:15:06;;;;;;;24.40;6.50;;;14.30;99.90;;;;;;5072351;28;20478;-62
2022/11/16 12:17:44;;;;;;;44.27;9.20;;;14.30;99.90;;;;;;5053042;28;20808;-62
2022/11/16 12:20:29;;;;;;;35.73;6.03;;;;;;;;;;5081596;28;20473;-62
2022/11/16 12:23:15;;;;;;;36.60;8.80;;;14.10;99.90;;;;;;5068769;28;20494;-62
2022/11/16 12:25:49;;;;;;;48.00;11.70;;;13.70;99.90;;;;;;5064163;28;20474;-62
2022/11/16 12:28:26;;;;;;;34.23;6.60;;;13.70;99.90;;;;;;5075466;28;20481;-61
2022/11/16 12:31:07;;;;;;;38.53;8.20;;;13.60;99.90;;;;;;5062516;28;20482;-62
2022/11/16 12:33:41;;;;;;;47.97;10.90;;;;;;;;;;5056641;28;20930;-62
2022/11/16 12:36:13;;;;;;;33.57;7.00;;;;;;;;;;5083102;28;20485;-62
2022/11/16 12:38:51;;;;;;;65.97;10.10;;;13.80;99.90;;;;;;5068204;28;20485;-62
2022/11/16 12:41:42;;;;;;;33.77;8.30;;;;;;;;;;5081182;28;20477;-62
2022/11/16 12:44:12;;;;;;;38.90;7.50;;;14.00;99.90;;;;;;5069612;28;20467;-62
2022/11/16 12:46:44;;;;;;;42.97;10.97;;;;;;;;;;5072599;28;20506;-62
2022/11/16 12:49:23;;;;;;;39.27;8.43;;;;;;;;;;5070121;28;20490;-62
2022/11/16 12:52:01;;;;;;;66.60;19.53;;;14.00;99.90;;;;;;5068356;28;21025;-62
2022/11/16 12:55:00;;;;;;;50.90;8.27;;;13.70;99.90;;;;;;5073597;28;20945;-62
2022/11/16 12:57:34;;;;;;;38.47;8.70;;;13.90;99.90;;;;;;5072636;28;20493;-63
2022/11/16 13:00:07;;;;;;;32.20;7.77;;;13.80;99.90;;;;;;5074540;28;20989;-63
2022/11/16 13:02:49;;;;;;;48.20;10.83;;;;;;;;;;5065463;28;20485;-62
2022/11/16 13:05:20;;;;;;;28.90;6.23;;;13.70;99.90;;;;;;5064613;28;20474;-62
2022/11/16 13:07:51;;;;;;;45.00;10.10;;;13.70;99.90;;;;;;5072299;28;20490;-62
2022/11/16 13:10:22;;;;;;;32.57;6.10;;;13.50;99.90;;;;;;5072931;28;20482;-62
2022/11/16 13:12:53;;;;;;;54.60;11.30;;;13.60;99.90;;;;;;5071789;28;20478;-62
2022/11/16 13:15:21;;;;;;;43.80;9.53;;;;;;;;;;5070537;28;20486;-62
2022/11/16 13:17:53;;;;;;;34.57;6.60;;;13.90;99.90;;;;;;5069248;28;20482;-63
2022/11/16 13:20:30;;;;;;;39.20;8.70;;;;;;;;;;5071184;28;20503;-62
2022/11/16 13:23:00;;;;;;;37.17;7.20;;;;;;;;;;5071471;28;20486;-62
2022/11/16 13:25:33;;;;;;;32.93;6.27;;;14.60;99.90;;;;;;5073863;28;21013;-62
2022/11/16 13:28:09;;;;;;;39.83;8.57;;;14.90;99.90;;;;;;5073701;28;20482;-63
2022/11/16 13:30:45;;;;;;;46.07;11.40;;;14.70;99.90;;;;;;5071214;28;20470;-63
2022/11/16 13:33:26;;;;;;;34.07;7.23;;;14.60;99.90;;;;;;5059717;28;20462;-62
2022/11/16 13:35:55;;;;;;;31.17;5.67;;;14.50;99.90;;;;;;5063295;28;20478;-62
2022/11/16 13:38:49;;;;;;;43.27;8.43;;;14.40;99.90;;;;;;5067343;28;20500;-62
2022/11/16 13:41:27;;;;;;;32.00;7.03;;;14.30;99.90;;;;;;5061908;28;21592;-61
2022/11/16 13:43:54;;;;;;;29.37;5.20;;;14.10;99.90;;;;;;5060356;28;20489;-62
2022/11/16 13:46:21;;;;;;;27.27;6.40;;;;;;;;;;5075085;28;20506;-62
2022/11/16 13:48:48;;;;;;;27.97;6.23;;;14.20;99.90;;;;;;5068904;28;20501;-61
2022/11/16 13:51:21;;;;;;;35.07;6.57;;;14.20;99.90;;;;;;5078174;28;20488;-62
2022/11/16 13:53:50;;;;;;;41.70;8.80;;;;;;;;;;5059541;28;20474;-62